Cape Hatteras Natl Seashore, North Carolina
Current Conditions -  °F | °C
As of 11:19 AM on Wednesday 26 Nov 2014 (Local Time) from KHSE Reporting Station
Moderate Rain Moderate Rain  
Wind Chill: 21°   Ceiling: 8500
Heat Index: 21°   Visibility: 1.5mi
Dew Point: 21°   Wind: 20mph
Humidity: 100%   Direction: 210°SSW
Pressure: 29.69"   Gusts: 32mph
Location:  35.22°N, 75.68°W
Report Text: KHSE 261619Z AUTO 21017G28KT 1 1/2SM RA BR FEW016 BKN085 OVC100 21/21 A2969 RMK AO2 PK WND 20030/1608 PRESFR P0005 T02110211 TSNO
Loading
Personal Weather Stations






























Interactive Weather Map New forecast layout! Learn more

10-Day Weather Forecast

Advertisements
Track Severe Weather on mobile